Time;durP1;ratioP1;P1;durP2;ratioP2;P2;SDS_P1;SDS_P2;PMS_P1;PMS_P2;Temp;Humidity;BMP_temperature;BMP_pressure;BME280_temperature;BME280_humidity;BME280_pressure;Samples;Min_cycle;Max_cycle;Signal;HPM_P1;HPM_P2
2023/07/16 00:02:38;;;;;;;4.07;2.28;;;25.20;90.40;;;;;;5062600;28;20031;-72
2023/07/16 00:05:24;;;;;;;3.88;2.45;;;25.10;90.50;;;;;;5052887;28;20041;-70
2023/07/16 00:08:10;;;;;;;5.03;2.40;;;25.10;90.60;;;;;;5067943;28;20387;-71
2023/07/16 00:10:56;;;;;;;4.13;2.55;;;25.10;90.60;;;;;;5050810;28;20044;-71
2023/07/16 00:13:46;;;;;;;4.38;2.95;;;25.10;90.70;;;;;;5066049;28;20060;-71
2023/07/16 00:16:32;;;;;;;3.65;2.58;;;25.00;90.70;;;;;;5056274;28;20499;-71
2023/07/16 00:19:18;;;;;;;6.32;2.67;;;24.90;90.90;;;;;;5056257;28;20041;-70
2023/07/16 00:22:04;;;;;;;3.63;2.30;;;24.90;90.90;;;;;;5070029;28;20028;-70
2023/07/16 00:24:50;;;;;;;4.05;2.60;;;24.90;90.90;;;;;;5061416;28;20036;-70
2023/07/16 00:27:36;;;;;;;3.78;2.33;;;24.90;91.20;;;;;;5038598;28;20029;-72
2023/07/16 00:30:22;;;;;;;4.15;2.60;;;24.90;91.30;;;;;;5053378;28;20136;-69
2023/07/16 00:33:08;;;;;;;3.63;2.60;;;24.80;91.50;;;;;;5050362;28;20033;-68
2023/07/16 00:35:54;;;;;;;4.03;2.80;;;24.80;91.70;;;;;;5053087;28;20109;-68
2023/07/16 00:38:41;;;;;;;5.15;2.83;;;24.80;91.70;;;;;;5052012;28;20042;-68
2023/07/16 00:41:27;;;;;;;3.10;2.45;;;24.70;91.80;;;;;;5051042;28;20553;-68
2023/07/16 00:44:12;;;;;;;5.90;2.67;;;24.80;92.00;;;;;;5051056;28;20474;-68
2023/07/16 00:46:59;;;;;;;4.60;3.03;;;24.80;92.30;;;;;;5061549;28;20055;-68
2023/07/16 00:49:45;;;;;;;6.20;3.30;;;24.80;92.40;;;;;;5056162;28;20542;-68
2023/07/16 00:52:32;;;;;;;5.60;2.70;;;24.80;92.50;;;;;;5055811;28;20061;-68
2023/07/16 00:55:18;;;;;;;3.83;2.42;;;24.80;92.50;;;;;;5049325;28;20029;-68
2023/07/16 00:58:06;;;;;;;3.30;2.50;;;24.70;92.60;;;;;;5050855;28;20044;-68
2023/07/16 01:00:52;;;;;;;4.45;2.90;;;24.80;92.70;;;;;;5050372;28;20084;-67
2023/07/16 01:03:39;;;;;;;3.75;2.72;;;24.80;92.70;;;;;;5053831;28;20117;-67
2023/07/16 01:06:35;;;;;;;3.97;2.47;;;24.70;92.80;;;;;;5052482;28;20040;-67
2023/07/16 01:09:22;;;;;;;5.07;2.45;;;24.80;92.80;;;;;;5046811;28;20483;-67
2023/07/16 01:12:08;;;;;;;3.65;2.97;;;24.70;93.00;;;;;;5070086;28;20032;-66
2023/07/16 01:14:57;;;;;;;6.28;2.60;;;24.70;93.00;;;;;;5040687;28;20029;-66
2023/07/16 01:17:43;;;;;;;4.43;3.03;;;24.70;93.20;;;;;;5049859;28;20033;-67
2023/07/16 01:20:29;;;;;;;5.20;2.67;;;24.70;93.20;;;;;;5048634;28;20048;-67
2023/07/16 01:23:50;;;;;;;5.18;3.30;;;24.70;93.30;;;;;;5049452;28;20033;-67
2023/07/16 01:26:45;;;;;;;4.30;2.80;;;24.70;93.20;;;;;;4931524;29;20047;-67
2023/07/16 01:29:41;;;;;;;5.38;2.65;;;24.50;93.40;;;;;;5055588;28;20086;-68
2023/07/16 01:32:29;;;;;;;5.15;2.83;;;24.50;93.60;;;;;;5050757;28;20041;-68
2023/07/16 01:35:15;;;;;;;4.65;3.08;;;24.50;93.80;;;;;;5042719;28;20044;-68
2023/07/16 01:38:01;;;;;;;3.53;2.53;;;24.40;93.80;;;;;;5049411;28;20053;-67
2023/07/16 01:40:48;;;;;;;4.35;2.83;;;24.40;93.80;;;;;;5048217;28;20114;-68
2023/07/16 01:43:34;;;;;;;4.47;3.45;;;24.40;93.90;;;;;;5050317;28;20568;-68
2023/07/16 01:46:20;;;;;;;5.15;3.10;;;24.30;93.90;;;;;;5069917;28;20029;-68
2023/07/16 01:49:06;;;;;;;4.47;3.35;;;24.30;93.90;;;;;;5048879;28;20064;-68
2023/07/16 01:51:52;;;;;;;4.95;3.75;;;24.30;93.90;;;;;;5050241;28;20040;-68
2023/07/16 01:54:38;;;;;;;4.82;3.13;;;24.30;93.90;;;;;;5047918;28;20079;-68
2023/07/16 01:57:24;;;;;;;6.25;3.60;;;24.30;93.90;;;;;;5049444;28;20206;-68
2023/07/16 02:00:11;;;;;;;5.00;3.33;;;24.30;93.90;;;;;;5049558;28;20049;-68
2023/07/16 02:02:57;;;;;;;3.92;3.00;;;24.30;93.90;;;;;;5053788;28;20021;-68
2023/07/16 02:05:43;;;;;;;7.47;3.13;;;24.20;93.80;;;;;;5057980;28;20035;-68
2023/07/16 02:08:28;;;;;;;6.55;3.10;;;24.30;93.70;;;;;;5066176;28;20021;-68
2023/07/16 02:11:14;;;;;;;4.88;2.92;;;24.30;93.60;;;;;;5035428;28;20091;-68
2023/07/16 02:14:00;;;;;;;4.15;2.45;;;24.30;93.50;;;;;;5049416;28;20091;-68
2023/07/16 02:16:46;;;;;;;3.63;2.22;;;24.30;93.50;;;;;;5065722;28;20062;-68
2023/07/16 02:19:32;;;;;;;3.40;2.70;;;24.30;93.30;;;;;;5054866;28;20792;-69
2023/07/16 02:22:18;;;;;;;3.55;2.05;;;24.30;93.30;;;;;;5054897;28;20033;-69
2023/07/16 02:25:04;;;;;;;3.38;2.00;;;24.30;93.50;;;;;;5052333;28;20123;-68
2023/07/16 02:27:50;;;;;;;3.58;2.30;;;24.20;93.70;;;;;;5058552;28;20037;-69
2023/07/16 02:30:36;;;;;;;5.07;2.55;;;24.20;93.90;;;;;;5068516;28;20035;-68
2023/07/16 02:33:22;;;;;;;3.95;2.30;;;24.20;94.20;;;;;;5052628;28;20025;-69
2023/07/16 02:36:08;;;;;;;5.45;2.63;;;24.10;94.50;;;;;;5052707;28;20056;-69
2023/07/16 02:38:54;;;;;;;3.42;2.25;;;24.00;94.70;;;;;;5055597;28;20032;-68
2023/07/16 02:41:40;;;;;;;4.53;2.67;;;24.00;95.00;;;;;;5059855;28;20045;-69
2023/07/16 02:44:26;;;;;;;2.60;2.10;;;23.90;95.20;;;;;;5051761;28;20033;-69
2023/07/16 02:47:12;;;;;;;4.30;3.05;;;23.90;95.40;;;;;;5052055;28;20069;-69
2023/07/16 02:49:58;;;;;;;3.47;2.30;;;23.80;95.70;;;;;;5058004;28;20371;-68
2023/07/16 02:52:44;;;;;;;5.63;2.10;;;23.80;96.00;;;;;;5053291;28;20040;-69
2023/07/16 02:55:30;;;;;;;4.70;2.85;;;23.70;96.30;;;;;;5053462;28;20106;-68
2023/07/16 02:58:16;;;;;;;3.60;2.20;;;23.70;96.50;;;;;;5057379;28;20036;-68
2023/07/16 03:01:02;;;;;;;4.10;2.28;;;23.70;96.70;;;;;;5052637;28;20084;-69
2023/07/16 03:03:48;;;;;;;4.85;2.97;;;23.70;96.90;;;;;;5050496;28;20059;-69
2023/07/16 03:06:33;;;;;;;3.45;2.28;;;23.70;97.10;;;;;;5053061;28;20029;-69
2023/07/16 03:09:19;;;;;;;2.92;2.00;;;23.60;97.30;;;;;;5052897;28;20071;-70
2023/07/16 03:12:06;;;;;;;3.20;2.35;;;23.60;97.60;;;;;;5052119;28;20037;-70
2023/07/16 03:14:54;;;;;;;4.45;2.30;;;23.60;97.80;;;;;;5056883;28;20097;-70
2023/07/16 03:17:40;;;;;;;2.72;2.03;;;23.50;98.00;;;;;;5072217;28;20032;-70
2023/07/16 03:20:26;;;;;;;3.40;2.50;;;23.50;98.10;;;;;;5051406;28;20653;-70
2023/07/16 03:23:12;;;;;;;3.72;2.22;;;23.50;98.30;;;;;;5051706;28;20508;-69
2023/07/16 03:25:58;;;;;;;4.20;2.03;;;23.30;98.50;;;;;;5051646;28;20094;-69
2023/07/16 03:28:44;;;;;;;4.82;2.53;;;23.30;98.60;;;;;;5050744;28;20416;-69
2023/07/16 03:31:30;;;;;;;4.15;2.00;;;23.30;98.70;;;;;;5051733;28;20153;-69
2023/07/16 03:34:15;;;;;;;3.40;2.25;;;23.30;98.90;;;;;;5050897;28;20033;-70
2023/07/16 03:37:01;;;;;;;3.67;2.30;;;23.20;99.00;;;;;;5045976;28;20049;-69
2023/07/16 03:39:47;;;;;;;3.03;2.05;;;23.20;99.10;;;;;;5057524;28;20047;-70
2023/07/16 03:42:33;;;;;;;4.35;2.30;;;23.20;99.20;;;;;;5052229;28;20484;-70
2023/07/16 03:45:19;;;;;;;3.30;2.30;;;23.20;99.30;;;;;;5051993;28;20367;-70
2023/07/16 03:48:05;;;;;;;3.47;1.90;;;23.20;99.40;;;;;;5049364;28;20041;-70
2023/07/16 03:50:51;;;;;;;4.75;2.00;;;23.10;99.50;;;;;;5070028;28;20493;-70
2023/07/16 03:53:38;;;;;;;3.10;2.10;;;23.10;99.60;;;;;;5061295;28;20447;-69
2023/07/16 03:56:24;;;;;;;2.50;1.70;;;23.10;99.70;;;;;;5051138;28;20079;-71
2023/07/16 03:59:09;;;;;;;3.65;2.55;;;23.10;99.80;;;;;;5053756;28;20517;-70
2023/07/16 04:01:55;;;;;;;3.25;2.00;;;23.10;99.90;;;;;;5050262;28;20071;-69
2023/07/16 04:04:41;;;;;;;2.90;2.00;;;23.10;99.90;;;;;;5053540;28;20028;-68
2023/07/16 04:07:27;;;;;;;2.83;1.77;;;23.10;99.90;;;;;;5062600;28;20043;-68
2023/07/16 04:10:13;;;;;;;5.00;1.95;;;23.10;99.90;;;;;;5054233;28;20528;-68
2023/07/16 04:12:59;;;;;;;2.90;1.80;;;23.10;99.90;;;;;;5051552;28;20115;-68
2023/07/16 04:15:45;;;;;;;4.82;2.22;;;23.10;99.90;;;;;;5051947;28;20044;-68
2023/07/16 04:18:31;;;;;;;3.10;2.05;;;23.10;99.90;;;;;;5051459;28;20041;-69
2023/07/16 04:21:17;;;;;;;4.28;1.80;;;23.10;99.90;;;;;;5051184;28;20095;-68
2023/07/16 04:24:03;;;;;;;3.30;1.90;;;23.10;99.90;;;;;;5036321;28;20149;-68
2023/07/16 04:26:49;;;;;;;3.95;2.13;;;23.10;99.90;;;;;;5051030;28;20044;-68
2023/07/16 04:29:35;;;;;;;3.13;1.73;;;23.10;99.90;;;;;;5050674;28;20029;-68
2023/07/16 04:32:22;;;;;;;3.35;1.90;;;23.10;99.90;;;;;;5051986;28;20086;-68
2023/07/16 04:35:08;;;;;;;3.47;2.20;;;23.10;99.90;;;;;;5050403;28;20067;-69
2023/07/16 04:37:54;;;;;;;3.03;2.15;;;23.10;99.90;;;;;;5059770;28;20048;-69
2023/07/16 04:40:42;;;;;;;3.50;2.13;;;23.10;99.90;;;;;;5055817;28;20480;-69
2023/07/16 04:43:28;;;;;;;3.25;1.77;;;23.10;99.90;;;;;;5064773;28;20036;-69
2023/07/16 04:46:15;;;;;;;3.50;2.13;;;23.10;99.90;;;;;;5052634;28;20033;-69
2023/07/16 04:49:02;;;;;;;3.42;2.00;;;23.10;99.90;;;;;;5052344;28;20033;-74
2023/07/16 04:51:48;;;;;;;2.83;2.15;;;23.10;99.90;;;;;;5062767;28;20077;-72
2023/07/16 04:54:37;;;;;;;3.00;2.17;;;23.00;99.90;;;;;;5065202;28;20039;-78
2023/07/16 04:57:23;;;;;;;3.70;2.10;;;23.10;99.90;;;;;;5066433;28;20107;-78
2023/07/16 05:00:10;;;;;;;4.90;2.38;;;23.10;99.90;;;;;;5050295;28;20047;-76
2023/07/16 05:02:56;;;;;;;3.88;2.63;;;23.10;99.90;;;;;;5058862;28;20029;-78
2023/07/16 05:05:42;;;;;;;4.65;2.35;;;23.10;99.90;;;;;;5055497;28;20028;-76
2023/07/16 05:08:27;;;;;;;4.50;2.40;;;23.10;99.90;;;;;;5045785;28;20120;-76
2023/07/16 05:11:13;;;;;;;5.15;2.10;;;23.10;99.90;;;;;;5060297;28;20409;-78
2023/07/16 05:14:00;;;;;;;5.10;2.10;;;23.10;99.90;;;;;;5050041;28;20119;-77
2023/07/16 05:16:46;;;;;;;3.95;2.55;;;23.10;99.90;;;;;;5049552;28;20067;-71
2023/07/16 05:19:32;;;;;;;3.95;2.42;;;23.10;99.90;;;;;;5049117;28;20056;-72
2023/07/16 05:22:17;;;;;;;3.55;2.53;;;23.20;99.90;;;;;;5049318;28;20029;-73
2023/07/16 05:25:04;;;;;;;3.20;2.40;;;23.20;99.90;;;;;;5054188;28;20036;-69
2023/07/16 05:27:50;;;;;;;3.65;2.58;;;23.20;99.90;;;;;;5067345;28;20560;-67
2023/07/16 05:30:36;;;;;;;4.20;2.40;;;23.30;99.90;;;;;;5049899;28;20036;-67
2023/07/16 05:33:21;;;;;;;4.38;2.80;;;23.40;99.90;;;;;;5050000;28;20067;-65
2023/07/16 05:36:07;;;;;;;3.58;2.33;;;23.50;99.90;;;;;;5049665;28;20055;-67
2023/07/16 05:38:53;;;;;;;3.35;2.20;;;23.60;99.90;;;;;;5058719;28;20032;-69
2023/07/16 05:41:41;;;;;;;3.47;2.35;;;23.80;99.90;;;;;;5050264;28;20033;-67
2023/07/16 05:44:26;;;;;;;3.75;2.10;;;23.90;99.90;;;;;;5050415;28;20047;-68
2023/07/16 05:47:12;;;;;;;3.75;2.13;;;24.00;99.90;;;;;;5055672;28;20127;-68
2023/07/16 05:49:58;;;;;;;4.10;2.70;;;24.10;99.90;;;;;;5060968;28;20436;-67
2023/07/16 05:52:45;;;;;;;9.55;2.50;;;24.10;99.90;;;;;;5066875;28;20491;-66
2023/07/16 05:55:31;;;;;;;3.58;1.80;;;24.20;99.90;;;;;;5050185;28;20041;-67
2023/07/16 05:58:17;;;;;;;4.93;2.45;;;24.20;99.90;;;;;;5047672;28;20514;-69
2023/07/16 06:01:03;;;;;;;4.68;2.47;;;24.20;99.90;;;;;;5057405;28;20446;-62
2023/07/16 06:03:49;;;;;;;4.55;2.40;;;24.20;99.90;;;;;;5063045;28;20028;-62
2023/07/16 06:06:35;;;;;;;3.65;2.30;;;24.10;99.90;;;;;;5052228;28;20037;-64
2023/07/16 06:09:21;;;;;;;2.70;1.90;;;24.10;99.80;;;;;;5050069;28;20056;-64
2023/07/16 06:12:07;;;;;;;5.68;2.58;;;24.10;99.90;;;;;;5050333;28;20037;-63
2023/07/16 06:14:53;;;;;;;5.05;2.22;;;24.10;99.90;;;;;;5056683;28;20410;-63
2023/07/16 06:17:39;;;;;;;9.93;2.85;;;24.10;99.90;;;;;;5055195;28;20033;-64
2023/07/16 06:20:25;;;;;;;3.05;2.20;;;24.00;99.90;;;;;;5049663;28;20421;-63
2023/07/16 06:23:12;;;;;;;2.72;1.80;;;24.10;99.90;;;;;;5061820;28;20032;-63
2023/07/16 06:25:58;;;;;;;3.78;2.75;;;24.10;99.90;;;;;;5050301;28;20028;-63
2023/07/16 06:28:44;;;;;;;4.15;2.05;;;24.10;99.90;;;;;;5064057;28;20040;-63
2023/07/16 06:31:30;;;;;;;3.60;2.47;;;24.10;99.90;;;;;;5050333;28;20155;-64
2023/07/16 06:34:16;;;;;;;5.63;2.42;;;24.10;99.90;;;;;;5050002;28;20044;-64
2023/07/16 06:37:02;;;;;;;4.40;2.50;;;24.10;99.90;;;;;;5058307;28;20056;-63
2023/07/16 06:39:48;;;;;;;4.57;2.50;;;24.20;99.80;;;;;;5057509;28;20055;-64
2023/07/16 06:42:34;;;;;;;2.65;2.05;;;24.20;99.80;;;;;;5058693;28;20060;-63
2023/07/16 06:45:20;;;;;;;2.63;2.00;;;24.20;99.70;;;;;;5051346;28;20137;-64
2023/07/16 06:48:06;;;;;;;4.93;2.53;;;24.20;99.50;;;;;;5053036;28;20041;-64
2023/07/16 06:50:52;;;;;;;2.35;1.75;;;24.20;99.40;;;;;;5048345;28;20123;-64
2023/07/16 06:53:38;;;;;;;4.20;2.35;;;24.30;99.30;;;;;;5060304;28;20440;-63
2023/07/16 06:56:24;;;;;;;6.75;2.50;;;24.30;99.20;;;;;;5057651;28;20098;-63
2023/07/16 06:59:10;;;;;;;5.85;2.28;;;24.30;99.10;;;;;;5049359;28;20131;-64
2023/07/16 07:01:55;;;;;;;4.70;2.05;;;24.40;99.00;;;;;;5066743;28;20667;-60
2023/07/16 07:04:41;;;;;;;4.15;2.40;;;24.50;98.90;;;;;;5052891;28;20417;-61
2023/07/16 07:07:27;;;;;;;4.05;2.80;;;24.60;98.90;;;;;;5052846;28;20420;-61
2023/07/16 07:10:13;;;;;;;3.00;1.88;;;24.70;99.10;;;;;;5062888;28;20497;-60
2023/07/16 07:12:59;;;;;;;3.88;1.90;;;24.90;98.80;;;;;;5069364;28;20489;-60
2023/07/16 07:15:45;;;;;;;3.13;2.00;;;25.00;98.40;;;;;;5052115;28;20402;-60
2023/07/16 07:18:31;;;;;;;2.65;1.95;;;25.10;98.00;;;;;;5051807;28;20029;-61
2023/07/16 07:21:17;;;;;;;3.47;2.20;;;25.20;97.80;;;;;;5052826;28;20512;-60
2023/07/16 07:24:03;;;;;;;3.58;2.28;;;25.30;97.60;;;;;;5054889;28;20029;-59
2023/07/16 07:26:49;;;;;;;3.25;2.15;;;25.30;97.40;;;;;;5052212;28;20120;-59
2023/07/16 07:29:35;;;;;;;3.22;2.10;;;25.40;97.20;;;;;;5041947;28;20366;-59
2023/07/16 07:32:22;;;;;;;3.03;2.28;;;25.50;97.10;;;;;;5062027;28;20040;-60
2023/07/16 07:35:07;;;;;;;3.53;2.42;;;25.50;96.90;;;;;;5052858;28;20040;-61
2023/07/16 07:37:53;;;;;;;2.72;1.98;;;25.60;97.00;;;;;;5051309;28;20077;-60
2023/07/16 07:40:42;;;;;;;2.50;1.85;;;25.60;96.60;;;;;;5051134;28;20127;-60
2023/07/16 07:43:28;;;;;;;4.03;2.40;;;25.70;96.50;;;;;;5050155;28;20048;-60
2023/07/16 07:46:14;;;;;;;3.05;2.03;;;25.80;96.30;;;;;;5051778;28;20102;-60
2023/07/16 07:49:00;;;;;;;3.83;2.13;;;25.90;96.20;;;;;;5053906;28;20043;-59
2023/07/16 07:51:49;;;;;;;2.70;1.95;;;26.10;96.10;;;;;;5051640;28;20040;-60
2023/07/16 07:54:34;;;;;;;3.00;2.03;;;26.20;95.80;;;;;;5051667;28;20128;-60
2023/07/16 07:57:20;;;;;;;3.30;2.28;;;26.40;95.40;;;;;;5058030;28;20091;-66
2023/07/16 08:00:11;;;;;;;4.53;2.65;;;26.40;95.10;;;;;;5055834;28;21832;-66
2023/07/16 08:02:57;;;;;;;4.82;2.33;;;26.40;94.80;;;;;;5051482;28;20063;-66
2023/07/16 08:05:43;;;;;;;6.20;2.08;;;26.40;94.40;;;;;;5057193;28;20039;-66
2023/07/16 08:08:29;;;;;;;3.13;1.90;;;26.40;94.10;;;;;;5058825;28;20037;-66
2023/07/16 08:11:15;;;;;;;4.38;2.25;;;26.30;93.90;;;;;;5049077;28;20033;-67
2023/07/16 08:14:01;;;;;;;3.67;2.22;;;26.20;93.80;;;;;;5035092;28;20567;-66
2023/07/16 08:16:46;;;;;;;2.30;1.77;;;26.20;93.80;;;;;;5051519;28;20044;-67
2023/07/16 08:19:32;;;;;;;4.18;1.98;;;26.30;93.80;;;;;;5051199;28;20553;-67
2023/07/16 08:22:18;;;;;;;3.70;1.73;;;26.40;93.80;;;;;;5049870;28;20058;-66
2023/07/16 08:25:05;;;;;;;3.80;1.63;;;26.40;93.40;;;;;;5050395;28;20040;-65
2023/07/16 08:27:51;;;;;;;3.60;1.77;;;26.40;92.70;;;;;;5050508;28;20029;-66
2023/07/16 08:30:37;;;;;;;2.08;1.48;;;26.40;92.30;;;;;;5056450;28;20156;-67
2023/07/16 08:33:23;;;;;;;2.08;1.38;;;26.40;91.90;;;;;;5051434;28;20108;-67
2023/07/16 08:36:10;;;;;;;2.97;1.50;;;26.30;91.40;;;;;;5064639;28;20513;-66
2023/07/16 08:38:56;;;;;;;1.85;1.30;;;26.20;91.20;;;;;;5050289;28;20028;-66
2023/07/16 08:41:42;;;;;;;1.95;1.50;;;26.10;91.10;;;;;;5050879;28;20045;-65
2023/07/16 08:44:29;;;;;;;3.78;1.70;;;26.10;90.90;;;;;;5052498;28;20120;-66
2023/07/16 08:47:16;;;;;;;3.47;1.52;;;26.10;91.10;;;;;;5048693;28;20127;-67
2023/07/16 08:50:02;;;;;;;2.45;1.60;;;26.10;91.00;;;;;;5053862;28;20032;-67
2023/07/16 08:52:48;;;;;;;3.08;1.33;;;26.10;90.80;;;;;;5052561;28;20041;-64
2023/07/16 08:55:36;;;;;;;4.45;1.98;;;26.20;90.50;;;;;;5052410;28;20032;-67
2023/07/16 08:58:23;;;;;;;2.58;1.50;;;26.10;90.10;;;;;;5054801;28;20037;-65
2023/07/16 09:01:10;;;;;;;3.08;1.95;;;26.10;89.70;;;;;;5033780;28;20044;-65
2023/07/16 09:03:57;;;;;;;3.97;1.75;;;26.10;89.00;;;;;;5049912;28;20033;-66
2023/07/16 09:06:43;;;;;;;2.78;1.60;;;26.20;89.10;;;;;;5059236;28;20041;-66
2023/07/16 09:09:29;;;;;;;2.45;1.52;;;26.10;88.70;;;;;;5046419;28;20398;-65
2023/07/16 09:12:15;;;;;;;2.97;1.90;;;26.20;88.20;;;;;;5049582;28;20037;-66
2023/07/16 09:15:01;;;;;;;3.25;1.67;;;26.20;87.90;;;;;;5049864;28;20033;-67
2023/07/16 09:17:48;;;;;;;3.78;2.05;;;26.30;88.10;;;;;;5050717;28;20496;-69
2023/07/16 09:20:34;;;;;;;2.45;1.80;;;26.30;88.40;;;;;;5048881;28;20051;-71
2023/07/16 09:23:20;;;;;;;8.70;1.73;;;26.40;88.40;;;;;;5056417;28;20029;-69
2023/07/16 09:26:06;;;;;;;3.55;1.63;;;26.50;88.00;;;;;;5051661;28;20196;-69
2023/07/16 09:28:52;;;;;;;4.32;1.70;;;26.60;87.40;;;;;;5050268;28;20029;-71
2023/07/16 09:31:50;;;;;;;2.92;1.58;;;26.70;87.00;;;;;;5049553;28;20060;-67
2023/07/16 09:34:36;;;;;;;3.72;1.98;;;26.80;87.00;;;;;;5055278;28;20025;-66
2023/07/16 09:37:22;;;;;;;3.53;1.92;;;26.90;86.80;;;;;;5069294;28;20048;-67
2023/07/16 09:40:10;;;;;;;3.90;2.00;;;27.00;86.30;;;;;;5052645;28;20059;-67
2023/07/16 09:42:56;;;;;;;5.35;2.20;;;27.10;86.00;;;;;;5048665;28;20144;-67
2023/07/16 09:45:43;;;;;;;3.03;1.60;;;27.10;85.40;;;;;;5048432;28;20104;-67
2023/07/16 09:48:29;;;;;;;2.85;1.45;;;27.00;84.70;;;;;;5047551;28;20033;-68
2023/07/16 09:51:15;;;;;;;4.50;2.00;;;27.10;84.40;;;;;;5051034;28;20131;-66
2023/07/16 09:54:02;;;;;;;3.25;1.85;;;27.10;84.10;;;;;;5048292;28;20051;-66
2023/07/16 09:56:52;;;;;;;2.70;2.08;;;27.10;83.70;;;;;;5065813;28;20040;-67
2023/07/16 09:59:38;;;;;;;3.45;1.50;;;27.20;82.80;;;;;;5059334;28;20045;-66
2023/07/16 10:02:24;;;;;;;2.53;1.60;;;27.30;83.00;;;;;;5049955;28;20394;-67
2023/07/16 10:05:14;;;;;;;2.78;1.77;;;27.40;83.20;;;;;;5050761;28;20564;-66
2023/07/16 10:08:00;;;;;;;4.72;1.70;;;27.40;82.20;;;;;;5049534;28;20060;-65
2023/07/16 10:10:48;;;;;;;3.55;1.92;;;27.40;81.60;;;;;;5053214;28;20028;-65
2023/07/16 10:13:34;;;;;;;2.55;1.85;;;27.40;81.60;;;;;;5048619;28;20576;-66
2023/07/16 10:16:22;;;;;;;2.67;1.50;;;27.40;81.10;;;;;;5049946;28;20079;-64
2023/07/16 10:19:08;;;;;;;2.22;1.52;;;27.50;80.50;;;;;;5047847;28;20437;-63
2023/07/16 10:21:54;;;;;;;4.63;1.90;;;27.50;80.10;;;;;;5048684;28;20029;-64
2023/07/16 10:24:40;;;;;;;3.83;1.90;;;27.50;80.60;;;;;;5049832;28;20076;-66
2023/07/16 10:27:31;;;;;;;4.05;1.90;;;27.50;80.30;;;;;;5049923;28;20041;-65
2023/07/16 10:30:17;;;;;;;3.28;2.28;;;27.50;80.40;;;;;;5046967;28;20430;-65
2023/07/16 10:33:12;;;;;;;4.72;2.20;;;27.60;80.10;;;;;;5048558;28;20532;-64
2023/07/16 10:35:58;;;;;;;;;;;27.60;80.60;;;;;;5049783;28;20033;-63
2023/07/16 10:38:44;;;;;;;2.05;1.67;;;27.70;81.30;;;;;;5047478;28;20656;-65
2023/07/16 10:41:34;;;;;;;2.72;1.95;;;27.70;80.40;;;;;;5048592;28;20049;-63
2023/07/16 10:44:21;;;;;;;3.00;2.03;;;27.80;80.10;;;;;;5052403;28;20063;-67
2023/07/16 10:47:08;;;;;;;2.78;1.63;;;27.80;79.00;;;;;;5052466;28;20045;-66
2023/07/16 10:49:54;;;;;;;3.17;2.00;;;27.90;79.00;;;;;;5035991;28;20286;-67
2023/07/16 10:52:41;;;;;;;2.67;1.67;;;27.90;78.80;;;;;;5053424;28;20478;-66
2023/07/16 10:55:29;;;;;;;4.65;2.00;;;28.00;79.10;;;;;;5052710;28;20044;-66
2023/07/16 10:58:15;;;;;;;3.33;1.88;;;28.00;78.40;;;;;;5049632;28;20041;-65
2023/07/16 11:01:01;;;;;;;4.20;2.05;;;28.00;77.90;;;;;;5049829;28;20052;-64
2023/07/16 11:03:47;;;;;;;4.20;1.77;;;28.00;77.40;;;;;;5051493;28;20161;-65
2023/07/16 11:06:33;;;;;;;3.33;1.65;;;28.10;77.50;;;;;;5052562;28;20032;-65
2023/07/16 11:09:19;;;;;;;3.58;2.15;;;28.00;77.50;;;;;;5056944;28;20021;-64
2023/07/16 11:12:09;;;;;;;4.38;1.90;;;28.00;77.40;;;;;;5048531;28;20082;-65
2023/07/16 11:14:56;;;;;;;2.90;1.60;;;28.00;76.80;;;;;;5057647;28;20033;-65
2023/07/16 11:17:48;;;;;;;5.40;1.83;;;28.00;76.70;;;;;;5053284;28;20060;-66
2023/07/16 11:20:34;;;;;;;2.83;1.83;;;28.00;76.90;;;;;;5052409;28;20508;-66
2023/07/16 11:23:20;;;;;;;4.13;1.70;;;27.90;77.00;;;;;;5055716;28;20531;-65
2023/07/16 11:26:06;;;;;;;3.30;1.98;;;28.00;77.40;;;;;;5053788;28;20036;-66
2023/07/16 11:28:52;;;;;;;4.05;1.92;;;28.00;76.90;;;;;;5053488;28;20049;-66
2023/07/16 11:31:42;;;;;;;4.30;2.10;;;27.90;77.10;;;;;;5057882;28;20106;-66
2023/07/16 11:34:28;;;;;;;2.38;1.88;;;27.90;76.90;;;;;;5065967;28;20127;-64
2023/07/16 11:37:15;;;;;;;2.72;2.00;;;28.00;77.00;;;;;;5061834;28;20139;-65
2023/07/16 11:40:05;;;;;;;3.28;1.55;;;28.00;77.10;;;;;;5050741;28;20181;-64
2023/07/16 11:42:51;;;;;;;5.05;2.47;;;28.00;77.30;;;;;;5062460;28;20082;-63
2023/07/16 11:45:37;;;;;;;5.00;2.10;;;28.10;77.20;;;;;;5051886;28;20109;-65
2023/07/16 11:48:23;;;;;;;2.45;1.65;;;28.00;77.20;;;;;;5045534;28;20029;-64
2023/07/16 11:51:09;;;;;;;2.78;2.03;;;28.10;77.20;;;;;;5050845;28;20055;-66
2023/07/16 11:53:57;;;;;;;5.13;1.92;;;28.10;77.30;;;;;;5054329;28;20390;-65
2023/07/16 11:56:43;;;;;;;8.27;2.35;;;28.20;76.90;;;;;;5049669;28;20052;-66
2023/07/16 11:59:29;;;;;;;3.95;1.70;;;28.20;75.90;;;;;;5053516;28;20079;-66
2023/07/16 12:02:15;;;;;;;5.53;2.33;;;28.20;74.60;;;;;;5057330;28;20077;-65
2023/07/16 12:05:01;;;;;;;2.78;1.45;;;28.30;72.90;;;;;;5053646;28;20048;-65
2023/07/16 12:07:47;;;;;;;3.13;2.03;;;28.30;72.10;;;;;;5050704;28;20060;-66
2023/07/16 12:10:33;;;;;;;4.70;1.98;;;28.40;71.80;;;;;;5050523;28;20440;-65
2023/07/16 12:13:19;;;;;;;17.65;2.53;;;28.40;70.60;;;;;;5062238;28;20024;-66
2023/07/16 12:16:05;;;;;;;4.07;1.58;;;28.50;69.30;;;;;;5050491;28;20055;-66
2023/07/16 12:18:51;;;;;;;3.00;1.63;;;28.70;68.60;;;;;;5048930;28;20040;-73
2023/07/16 12:21:37;;;;;;;3.92;2.03;;;28.80;66.80;;;;;;5049756;28;20049;-69
2023/07/16 12:24:23;;;;;;;3.67;2.40;;;28.90;66.20;;;;;;5051579;28;20036;-75
2023/07/16 12:27:09;;;;;;;3.55;2.25;;;29.00;65.90;;;;;;5052247;28;20060;-64
2023/07/16 12:29:55;;;;;;;3.67;2.22;;;29.10;65.10;;;;;;5055955;28;20032;-69
2023/07/16 12:32:41;;;;;;;4.80;2.00;;;29.20;63.70;;;;;;5051556;28;20025;-69
2023/07/16 12:35:27;;;;;;;5.05;2.33;;;29.40;63.70;;;;;;5051704;28;20052;-67
2023/07/16 12:38:13;;;;;;;3.30;2.22;;;29.50;62.90;;;;;;5043925;28;20127;-70
2023/07/16 12:40:59;;;;;;;3.00;1.55;;;29.50;62.80;;;;;;5047610;28;20139;-70
2023/07/16 12:43:46;;;;;;;2.42;1.52;;;29.60;62.60;;;;;;5038733;28;20029;-70
2023/07/16 12:46:32;;;;;;;4.60;1.83;;;29.70;62.20;;;;;;5047005;28;20033;-69
2023/07/16 12:49:19;;;;;;;2.65;1.40;;;29.80;61.80;;;;;;5041654;28;20130;-68
2023/07/16 12:52:05;;;;;;;4.05;1.70;;;29.90;62.00;;;;;;5053958;28;20481;-70
2023/07/16 12:54:51;;;;;;;3.92;1.83;;;29.90;61.30;;;;;;5054645;28;20495;-68
2023/07/16 12:57:37;;;;;;;2.75;1.73;;;30.00;61.30;;;;;;5056492;28;20033;-70
2023/07/16 13:00:23;;;;;;;3.80;2.03;;;30.00;61.10;;;;;;5057579;28;20040;-69
2023/07/16 13:03:11;;;;;;;4.15;2.15;;;30.10;61.20;;;;;;5071283;28;20024;-70
2023/07/16 13:05:57;;;;;;;3.85;1.80;;;30.20;59.80;;;;;;5042632;28;20033;-69
2023/07/16 13:08:43;;;;;;;3.03;1.60;;;30.30;59.60;;;;;;5049472;28;20025;-69
2023/07/16 13:11:29;;;;;;;4.68;2.30;;;30.30;58.90;;;;;;5049449;28;20409;-68
2023/07/16 13:14:16;;;;;;;6.88;1.70;;;30.30;58.30;;;;;;5054320;28;20107;-69
2023/07/16 13:17:05;;;;;;;2.78;1.70;;;30.30;58.10;;;;;;5059459;28;20040;-68
2023/07/16 13:19:50;;;;;;;4.38;1.98;;;30.20;58.00;;;;;;5057643;28;20051;-69
2023/07/16 13:22:36;;;;;;;3.10;1.55;;;30.20;57.90;;;;;;5065438;28;20156;-69
2023/07/16 13:25:22;;;;;;;3.30;1.48;;;30.20;57.80;;;;;;5035802;28;20040;-70
2023/07/16 13:28:08;;;;;;;2.95;1.73;;;30.10;57.70;;;;;;5048967;28;20452;-69
2023/07/16 13:30:54;;;;;;;3.08;1.88;;;30.10;57.70;;;;;;5064276;28;20535;-69
2023/07/16 13:33:40;;;;;;;6.03;1.83;;;30.30;58.10;;;;;;5057625;28;20207;-69
2023/07/16 13:36:26;;;;;;;3.38;1.63;;;30.30;57.70;;;;;;5052676;28;20052;-67
2023/07/16 13:39:13;;;;;;;3.35;1.90;;;30.30;57.60;;;;;;5061985;28;20028;-65
2023/07/16 13:41:59;;;;;;;3.97;1.90;;;30.30;57.60;;;;;;5054488;28;20509;-64
2023/07/16 13:44:45;;;;;;;2.80;1.73;;;30.20;57.50;;;;;;5056733;28;20090;-66
2023/07/16 13:47:31;;;;;;;3.75;1.73;;;30.30;57.10;;;;;;5057042;28;20033;-65
2023/07/16 13:50:17;;;;;;;3.83;1.88;;;30.40;57.10;;;;;;5052831;28;20029;-63
2023/07/16 13:53:03;;;;;;;3.10;1.25;;;30.50;57.00;;;;;;5051855;28;20393;-65
2023/07/16 13:55:49;;;;;;;1.92;1.40;;;30.60;56.20;;;;;;5061024;28;20094;-65
2023/07/16 13:58:35;;;;;;;3.58;1.63;;;30.70;56.20;;;;;;5050248;28;20126;-65
2023/07/16 14:01:22;;;;;;;3.17;1.95;;;30.70;55.90;;;;;;5059594;28;20052;-66
2023/07/16 14:04:08;;;;;;;4.05;1.75;;;30.70;56.20;;;;;;5048645;28;20029;-65
2023/07/16 14:06:55;;;;;;;3.05;1.50;;;30.80;55.30;;;;;;5068113;28;20115;-69
2023/07/16 14:09:41;;;;;;;4.85;1.60;;;30.90;55.10;;;;;;5054373;28;20031;-68
2023/07/16 14:12:27;;;;;;;3.00;1.88;;;31.00;54.60;;;;;;5052562;28;20044;-75
2023/07/16 14:15:12;;;;;;;4.65;1.83;;;31.10;54.10;;;;;;5050288;28;20040;-69
2023/07/16 14:17:58;;;;;;;3.58;2.15;;;31.10;53.60;;;;;;5054866;28;20099;-66
2023/07/16 14:20:44;;;;;;;4.25;1.70;;;31.00;53.30;;;;;;5062311;28;20416;-70
2023/07/16 14:23:30;;;;;;;3.33;1.70;;;30.90;53.00;;;;;;5051868;28;20037;-68
2023/07/16 14:26:16;;;;;;;4.85;2.30;;;30.90;53.30;;;;;;5053684;28;20099;-68
2023/07/16 14:29:02;;;;;;;14.05;2.13;;;31.00;53.00;;;;;;5051356;28;20615;-71